Port Star — 3EAS6 — position and weather

sailwx.info

Track history (hours):
 
Tides and Currents Weather Stations Pressure Air Temp Water Temp Dewpoint Dewpoint Depression Visibility Wind Speed Wind Dir Waves Ship Positions

Port Star

Last reported at 2015-Feb-25 04:12 UTC. Time now 2015-Mar-06 16:10 UTC.
Position N 37°24' E 025°55'.
Warning: this ship's position is 9 days out of date.

Length 175.5 m; beam 29.4 m.

Type: Ship. MMSI: 356105000.

Date/timePositionNaut miles runAvg speedWind from/ knotsBaromVisibWave heightAir tempDewpointWater temp
2015-Feb-25 04:12N 37°24' E 025°55'812.5
2015-Feb-25 03:33N 37°29' E 025°47'1211.3
2015-Feb-25 02:30N 37°40' E 025°45'23710.3
2015-Feb-24 03:28N 40°54' E 028°43'1112.2
2015-Feb-24 02:33N 40°57' E 028°57'1310.8
2015-Feb-24 01:20N 41°09' E 029°04'25 0.9
2015-Feb-22 20:20N 41°33' E 029°12'5 5.1
2015-Feb-22 19:20N 41°38' E 029°11'1012.5
2015-Feb-22 18:31N 41°48' E 029°09'1212.6
2015-Feb-22 17:33N 42°00' E 029°07'1512.7
2015-Feb-22 16:24N 42°15' E 029°06'  
2015-Feb-17 13:09N 40°43' E 028°42'2 2.7
2015-Feb-17 12:32N 40°43' E 028°45'8 6.6
2015-Feb-17 11:24N 40°40' E 028°36'7 2.3
2015-Feb-17 08:16N 40°46' E 028°40'1 2.0
2015-Feb-17 07:31N 40°47' E 028°42'2 1.7
2015-Feb-17 06:33N 40°46' E 028°43'2 2.1
2015-Feb-17 05:33N 40°45' E 028°41'2 2.2
2015-Feb-17 04:33N 40°45' E 028°44'3 2.8
2015-Feb-17 03:33N 40°45' E 028°47'3 2.7
2015-Feb-17 02:34N 40°46' E 028°51'2 1.6
2015-Feb-17 01:33N 40°44' E 028°51'1110.7
2015-Feb-17 00:33N 40°38' E 028°39'1 0.9
2015-Feb-16 23:11N 40°39' E 028°38'8 2.2
2015-Feb-16 19:23N 40°44' E 028°47'6 6.8
2015-Feb-16 18:33N 40°40' E 028°52'1 0.8
2015-Feb-16 17:33N 40°39' E 028°53'2 1.6
2015-Feb-16 16:22N 40°41' E 028°53'1 1.5
2015-Feb-16 15:27N 40°42' E 028°53'1 1.4
2015-Feb-16 14:33N 40°44' E 028°53'1 1.1
2015-Feb-16 13:34N 40°45' E 028°54'1 1.2
2015-Feb-16 12:32N 40°46' E 028°54'  
Track history (hours):
 
Tides and Currents Weather Stations Pressure Air Temp Water Temp Dewpoint Dewpoint Depression Visibility Wind Speed Wind Dir Waves Ship Positions

Port Star

Last reported at 2015-Feb-25 04:12 UTC. Time now 2015-Mar-06 16:10 UTC.
Position N 37°24' E 025°55'.
Warning: this ship's position is 9 days out of date.

Length 175.5 m; beam 29.4 m.

Type: Ship. MMSI: 356105000.

Date/timePositionNaut miles runAvg speedWind from/ knotsBaromVisibWave heightAir tempDewpointWater temp
2015-Feb-25 04:12N 37°24' E 025°55'812.5
2015-Feb-25 03:33N 37°29' E 025°47'1211.3
2015-Feb-25 02:30N 37°40' E 025°45'23710.3
2015-Feb-24 03:28N 40°54' E 028°43'1112.2
2015-Feb-24 02:33N 40°57' E 028°57'1310.8
2015-Feb-24 01:20N 41°09' E 029°04'25 0.9
2015-Feb-22 20:20N 41°33' E 029°12'5 5.1
2015-Feb-22 19:20N 41°38' E 029°11'1012.5
2015-Feb-22 18:31N 41°48' E 029°09'1212.6
2015-Feb-22 17:33N 42°00' E 029°07'1512.7
2015-Feb-22 16:24N 42°15' E 029°06'  
2015-Feb-17 13:09N 40°43' E 028°42'2 2.7
2015-Feb-17 12:32N 40°43' E 028°45'8 6.6
2015-Feb-17 11:24N 40°40' E 028°36'7 2.3
2015-Feb-17 08:16N 40°46' E 028°40'1 2.0
2015-Feb-17 07:31N 40°47' E 028°42'2 1.7
2015-Feb-17 06:33N 40°46' E 028°43'2 2.1
2015-Feb-17 05:33N 40°45' E 028°41'2 2.2
2015-Feb-17 04:33N 40°45' E 028°44'3 2.8
2015-Feb-17 03:33N 40°45' E 028°47'3 2.7
2015-Feb-17 02:34N 40°46' E 028°51'2 1.6
2015-Feb-17 01:33N 40°44' E 028°51'1110.7
2015-Feb-17 00:33N 40°38' E 028°39'1 0.9
2015-Feb-16 23:11N 40°39' E 028°38'8 2.2
2015-Feb-16 19:23N 40°44' E 028°47'6 6.8
2015-Feb-16 18:33N 40°40' E 028°52'1 0.8
2015-Feb-16 17:33N 40°39' E 028°53'2 1.6
2015-Feb-16 16:22N 40°41' E 028°53'1 1.5
2015-Feb-16 15:27N 40°42' E 028°53'1 1.4
2015-Feb-16 14:33N 40°44' E 028°53'1 1.1
2015-Feb-16 13:34N 40°45' E 028°54'1 1.2
2015-Feb-16 12:32N 40°46' E 028°54'  

Dump ship's entire track history